Terminal Aerodrome Forecast
Issued by NWS Duluth, MN

Home | Current Version | Previous Version | Text Only | Print | Product List | Glossary On
Versions: 1 2 3 4 5 6 7 8 9 10 11 12 13 14 15 16 17 18 19 20 21 22 23 24 25
624
FTUS43 KDLH 261737
TAFDLH
TAF
KDLH 261737Z 2618/2718 14010KT P6SM FEW060
     FM261900 16011KT P6SM VCSH SCT050
     FM262100 17012KT P6SM VCTS BKN040CB
      TEMPO 2621/2623 P6SM -SHRA BKN040
     FM270000 18008KT P6SM VCSH BKN045
     FM270400 23006KT 5SM BR BKN050
     FM270800 27005KT P6SM SCT080=

USA.gov is the U.S. government's official web portal to all federal, state and local government web resources and services.